Terminal Aerodrome Forecast
Issued by NWS

Current Version | Previous Version | Graphics & Text | Print | Product List | Glossary On
Versions: 1 2 3 4 5 6 7 8 9 10 11 12 13 14 15 16 17 18 19 20 21 22 23 24 25 26 27 28 29 30 31 32 33 34 35 36 37 38 39 40 41
000
FTUS41 KRNK 262323
TAFLWB
TAF
KLWB 262323Z 2700/2724 00000KT P6SM SKC
     FM270600 00000KT 4SM BR SKC
     FM270700 00000KT 1/4SM FG OVC001
     FM271315 00000KT 4SM BR SCT004
     FM271400 VRB03KT P6SM FEW045 SCT250=

USA.gov is the U.S. government's official web portal to all federal, state and local government web resources and services.